Airfield :
LOGIN :

Register | Disclaimer

   EN    FR    IT 

 










Legend :    VFR   Marginal VFR   IFR   Intensive IFR   Very Intensive IFR
Visi :
Ceiling :
>= 8 km
>= 3000ft
5 to 8 km
1000 to 3000 ft
1500m to 5 km
500 to 1000 ft
800 to 1500m
200 to 500 ft
< 800m
< 200 ft
Symbols :   Thunderstorms  Fog  Heavy snow  Heavy precipitations  Wind > 20 kt
SIGMETs :     Misc.  Thunderstorms  Icing  Turbulence  Mountain Waves  Volcanic Ashes






- Airport Elevation : 119 ft
- IATA code : WAT


EIWF - Waterford

CURRENT METAR :
  • 211400Z 13017G29KT 100V160 7000 DZ BKN007 09/08 Q0994 R21/2/////

EXPIRED METARs :
  • 211300Z 13021KT 4000 DZ FEW004 BKN008 08/08 Q0995
  • 211230Z 13016KT 100V160 4000 DZ BKN007 BKN011 08/08 Q0995 RERA R21/2/////

TAF TAF EIWF
Valid from the 21 at 12:00 until the 21 at 21:00 UTC


211100Z 2112/2121 13011KT 9999 FEW006 BKN018
TEMPO 2112/2121 4000 SHRA BKN007 BKN018CB
ATIS : +353 51 877 000



MET'MAP, your aeronautical weather chart ! - Copyright ORBIFLY December 2007 - Disclaimer

ORBIFLY MET'MAP TEAM :

Programming & Development : Alexandra Zaïnal
Concept & Development : Baudouin d'Aumeries
Co-Development & Prog : Marc-Olivier Méhu
Technical & hardware support : Manuel Goepfert

Contact : metmap@orbifly.com




SOURCES & CREDITS :

   NOAA